createdAt,value
2022-12-01T00:01:23.104Z,45.17
2022-12-01T00:03:50.230Z,46.25
2022-12-01T00:06:20.360Z,45.33
2022-12-01T00:09:07.722Z,43.85
2022-12-01T00:11:37.554Z,39.80
2022-12-01T00:14:05.645Z,38.97
2022-12-01T00:16:33.696Z,39.45
2022-12-01T00:19:00.900Z,40.25
2022-12-01T00:21:28.978Z,39.13
2022-12-01T00:23:58.282Z,40.38
2022-12-01T00:26:31.406Z,38.13
2022-12-01T00:28:59.763Z,38.88
2022-12-01T00:31:28.100Z,41.28
2022-12-01T00:33:55.933Z,41.60
2022-12-01T00:36:24.063Z,40.72
2022-12-01T00:38:56.302Z,40.30
2022-12-01T00:41:24.672Z,41.00
2022-12-01T00:43:52.295Z,37.90
2022-12-01T00:46:19.508Z,40.90
2022-12-01T00:48:46.897Z,40.00
2022-12-01T00:51:16.297Z,39.90
2022-12-01T00:53:44.817Z,40.45
2022-12-01T00:56:12.238Z,39.90
2022-12-01T00:58:46.349Z,40.40
2022-12-01T01:01:31.879Z,40.28
2022-12-01T01:03:59.155Z,40.58
2022-12-01T01:06:27.176Z,41.67
2022-12-01T01:08:54.565Z,39.88
2022-12-01T01:11:21.566Z,40.92
2022-12-01T01:13:49.034Z,40.35
2022-12-01T01:16:19.741Z,40.00
2022-12-01T01:18:47.794Z,40.72
2022-12-01T01:21:17.832Z,39.60
2022-12-01T01:23:45.042Z,40.92
2022-12-01T01:26:31.116Z,40.35
2022-12-01T01:29:01.063Z,39.45
2022-12-01T01:31:30.533Z,41.55
2022-12-01T01:34:00.096Z,41.03
2022-12-01T01:36:28.218Z,39.20
2022-12-01T01:38:55.765Z,42.75
2022-12-01T01:41:23.950Z,42.35
2022-12-01T01:43:55.225Z,41.92
2022-12-01T01:46:24.573Z,42.67
2022-12-01T01:49:11.995Z,41.33
2022-12-01T01:51:57.867Z,43.13
2022-12-01T01:54:33.235Z,40.47
2022-12-01T01:57:02.534Z,40.60
2022-12-01T01:59:34.772Z,41.22
2022-12-01T02:02:08.758Z,38.88
2022-12-01T02:04:42.461Z,39.58
2022-12-01T02:07:13.100Z,39.42
2022-12-01T02:09:41.325Z,41.58
2022-12-01T02:12:26.386Z,41.05
2022-12-01T02:14:53.343Z,42.25
2022-12-01T02:17:47.565Z,40.95
2022-12-01T02:20:50.905Z,39.60
2022-12-01T02:24:02.701Z,39.78
2022-12-01T02:26:54.632Z,38.85
2022-12-01T02:29:54.845Z,38.40
2022-12-01T02:32:58.236Z,38.63
2022-12-01T02:35:39.275Z,39.97
2022-12-01T02:38:21.879Z,39.58
2022-12-01T02:41:04.595Z,39.35
2022-12-01T02:43:51.539Z,39.87
2022-12-01T02:46:42.236Z,41.40
2022-12-01T02:49:21.851Z,40.95
2022-12-01T02:51:51.155Z,40.53
2022-12-01T02:54:21.356Z,40.63
2022-12-01T02:56:54.453Z,41.83
2022-12-01T02:59:21.494Z,41.30
2022-12-01T03:02:00.890Z,41.17
2022-12-01T03:04:55.496Z,42.58
2022-12-01T03:08:03.966Z,41.75
2022-12-01T03:10:58.012Z,43.75
2022-12-01T03:13:42.520Z,41.97
2022-12-01T03:16:21.158Z,45.58
2022-12-01T03:19:31.329Z,45.35
2022-12-01T03:22:32.072Z,46.83
2022-12-01T03:25:01.557Z,46.60
2022-12-01T03:27:35.464Z,45.45
2022-12-01T03:30:04.690Z,44.50
2022-12-01T03:32:38.370Z,44.72
2022-12-01T03:35:12.819Z,42.70
2022-12-01T03:37:42.895Z,42.60
2022-12-01T03:40:14.895Z,41.53
2022-12-01T03:42:48.041Z,43.45
2022-12-01T03:45:26.701Z,43.70
2022-12-01T03:47:53.936Z,41.83
2022-12-01T03:50:29.078Z,41.70
2022-12-01T03:53:04.460Z,40.00
2022-12-01T03:55:39.495Z,38.30
2022-12-01T03:58:17.346Z,38.10
2022-12-01T04:00:50.076Z,40.38
2022-12-01T04:03:19.795Z,38.15
2022-12-01T04:06:11.881Z,39.38
2022-12-01T04:08:39.822Z,40.53
2022-12-01T04:11:32.193Z,39.20
2022-12-01T04:14:00.984Z,40.08
2022-12-01T04:16:27.933Z,40.65
2022-12-01T04:18:56.451Z,38.22
2022-12-01T04:21:23.875Z,39.13
2022-12-01T04:24:03.691Z,38.97
2022-12-01T04:26:34.036Z,39.75
2022-12-01T04:29:05.857Z,39.25
2022-12-01T04:31:33.229Z,38.83
2022-12-01T04:34:00.889Z,40.30
2022-12-01T04:36:31.265Z,40.78
2022-12-01T04:38:58.801Z,41.53
2022-12-01T04:41:26.339Z,41.00
2022-12-01T04:43:56.856Z,39.28
2022-12-01T04:46:25.883Z,38.92
2022-12-01T04:48:53.285Z,39.47
2022-12-01T04:51:22.604Z,37.45
2022-12-01T04:53:52.665Z,39.78
2022-12-01T04:56:20.240Z,38.78
2022-12-01T04:58:53.812Z,36.88
2022-12-01T05:01:21.253Z,38.38
2022-12-01T05:03:51.976Z,36.97
2022-12-01T05:06:25.739Z,39.72
2022-12-01T05:08:56.517Z,37.85
2022-12-01T05:11:26.173Z,36.00
2022-12-01T05:13:54.421Z,38.67
2022-12-01T05:16:30.367Z,38.55
2022-12-01T05:19:20.250Z,39.80
2022-12-01T05:21:49.091Z,38.35
2022-12-01T05:24:17.344Z,38.72
2022-12-01T05:26:45.982Z,40.17
2022-12-01T05:29:13.415Z,39.22
2022-12-01T05:31:41.492Z,38.67
2022-12-01T05:34:09.266Z,40.55
2022-12-01T05:36:37.391Z,39.00
2022-12-01T05:39:05.460Z,40.83
2022-12-01T05:41:32.651Z,40.30
2022-12-01T05:43:59.959Z,43.22
2022-12-01T05:46:27.451Z,39.35
2022-12-01T05:48:55.812Z,41.90
2022-12-01T05:51:23.301Z,39.63
2022-12-01T05:53:50.744Z,40.88
2022-12-01T05:56:18.161Z,39.13
2022-12-01T05:58:45.131Z,39.67
2022-12-01T06:01:12.560Z,40.72
2022-12-01T06:03:39.522Z,40.15
2022-12-01T06:06:07.260Z,39.70
2022-12-01T06:08:34.384Z,40.83
2022-12-01T06:11:03.615Z,40.85
2022-12-01T06:13:30.861Z,40.50
2022-12-01T06:16:03.397Z,39.42
2022-12-01T06:18:36.972Z,40.65
2022-12-01T06:21:07.438Z,39.70
2022-12-01T06:23:34.953Z,37.90
2022-12-01T06:26:02.229Z,38.30
2022-12-01T06:28:29.552Z,39.25
2022-12-01T06:31:02.735Z,38.05
2022-12-01T06:33:31.943Z,39.17
2022-12-01T06:36:10.147Z,41.47
2022-12-01T06:38:37.545Z,41.33
2022-12-01T06:41:05.665Z,42.08
2022-12-01T06:43:32.894Z,40.40
2022-12-01T06:46:02.841Z,41.25
2022-12-01T06:48:31.695Z,40.05
2022-12-01T06:50:59.781Z,42.53
2022-12-01T06:53:28.660Z,43.35
2022-12-01T06:56:06.123Z,42.00
2022-12-01T06:58:34.899Z,42.28
2022-12-01T07:01:12.860Z,43.65
2022-12-01T07:03:40.302Z,41.60
2022-12-01T07:06:07.456Z,42.20
2022-12-01T07:08:34.547Z,41.33
2022-12-01T07:11:04.478Z,42.72
2022-12-01T07:13:34.097Z,45.30
2022-12-01T07:16:06.090Z,41.58
2022-12-01T07:18:34.105Z,41.85
2022-12-01T07:21:04.034Z,42.60
2022-12-01T07:23:31.764Z,42.15
2022-12-01T07:26:04.386Z,41.90
2022-12-01T07:28:34.066Z,42.05
2022-12-01T07:31:09.435Z,39.35
2022-12-01T07:33:37.019Z,40.80
2022-12-01T07:36:12.382Z,40.95
2022-12-01T07:38:40.244Z,42.03
2022-12-01T07:41:17.008Z,39.85
2022-12-01T07:43:44.358Z,39.53
2022-12-01T07:46:23.351Z,40.53
2022-12-01T07:48:56.382Z,42.13
2022-12-01T07:51:25.656Z,39.17
2022-12-01T07:53:55.147Z,38.88
2022-12-01T07:56:23.247Z,39.72
2022-12-01T07:58:51.773Z,42.70
2022-12-01T08:01:21.786Z,40.08
2022-12-01T08:03:51.959Z,39.58
2022-12-01T08:06:20.350Z,40.53
2022-12-01T08:08:53.853Z,39.30
2022-12-01T08:11:24.724Z,38.67
2022-12-01T08:13:53.930Z,46.58
2022-12-01T08:16:23.034Z,51.22
2022-12-01T08:18:50.778Z,55.80
2022-12-01T08:21:20.226Z,51.05
2022-12-01T08:23:48.592Z,48.83
2022-12-01T08:26:18.635Z,51.85
2022-12-01T08:28:51.969Z,48.95
2022-12-01T08:31:22.357Z,52.70
2022-12-01T08:33:51.024Z,62.95
2022-12-01T08:36:19.383Z,72.10
2022-12-01T08:38:49.204Z,67.63
2022-12-01T08:41:16.929Z,66.28
2022-12-01T08:44:01.721Z,50.35
2022-12-01T08:46:35.870Z,46.13
2022-12-01T08:49:05.480Z,47.38
2022-12-01T08:51:33.187Z,47.28
2022-12-01T08:54:01.865Z,51.45
2022-12-01T08:56:29.114Z,65.93
2022-12-01T08:58:56.583Z,65.07
2022-12-01T09:01:28.437Z,57.00
2022-12-01T09:04:06.777Z,57.00
2022-12-01T09:06:40.138Z,56.47
2022-12-01T09:09:10.145Z,56.47
2022-12-01T09:11:37.762Z,53.30
2022-12-01T09:14:05.137Z,49.22
2022-12-01T09:16:33.533Z,53.88
2022-12-01T09:19:00.732Z,57.22
2022-12-01T09:21:31.074Z,51.17
2022-12-01T09:24:00.983Z,49.67
2022-12-01T09:26:29.036Z,47.58
2022-12-01T09:29:04.269Z,48.22
2022-12-01T09:31:31.887Z,48.72
2022-12-01T09:34:01.839Z,48.28
2022-12-01T09:36:30.387Z,47.00
2022-12-01T09:39:00.159Z,48.92
2022-12-01T09:41:50.515Z,49.15
2022-12-01T09:44:38.052Z,50.15
2022-12-01T09:47:19.395Z,51.80
2022-12-01T09:50:12.567Z,47.30
2022-12-01T09:52:52.040Z,46.67
2022-12-01T09:55:23.397Z,45.50
2022-12-01T09:57:56.321Z,48.78
2022-12-01T10:00:26.887Z,43.55
2022-12-01T10:03:24.960Z,39.22
2022-12-01T10:06:26.241Z,39.85
2022-12-01T10:08:55.196Z,40.38
2022-12-01T10:11:33.938Z,42.65
2022-12-01T10:14:01.461Z,50.53
2022-12-01T10:16:38.621Z,60.58
2022-12-01T10:19:12.875Z,53.15
2022-12-01T10:21:54.199Z,52.72
2022-12-01T10:24:58.640Z,51.70
2022-12-01T10:27:52.935Z,35.85
2022-12-01T10:30:23.858Z,39.92
2022-12-01T10:32:57.880Z,45.28
2022-12-01T10:35:37.263Z,43.03
2022-12-01T10:38:15.512Z,48.47
2022-12-01T10:40:44.180Z,45.60
2022-12-01T10:43:11.272Z,44.15
2022-12-01T10:45:42.943Z,28.08
2022-12-01T10:48:23.285Z,27.30
2022-12-01T10:50:53.221Z,26.10
2022-12-01T10:53:23.196Z,26.00
2022-12-01T10:56:12.796Z,25.85
2022-12-01T10:59:04.908Z,27.35
2022-12-01T11:01:37.307Z,31.02
2022-12-01T11:04:21.852Z,28.77
2022-12-01T11:06:50.901Z,31.58
2022-12-01T11:09:27.057Z,31.17
2022-12-01T11:12:04.886Z,31.13
2022-12-01T11:14:48.969Z,30.73
2022-12-01T11:17:36.193Z,30.73
2022-12-01T11:20:27.367Z,30.40
2022-12-01T11:23:21.876Z,30.17
2022-12-01T11:26:21.062Z,29.80
2022-12-01T11:29:26.518Z,29.30
2022-12-01T11:31:54.571Z,29.80
2022-12-01T11:34:36.354Z,29.38
2022-12-01T11:37:06.876Z,28.27
2022-12-01T11:39:42.296Z,26.73
2022-12-01T11:42:19.556Z,25.17
2022-12-01T11:44:54.677Z,21.00
2022-12-01T11:47:27.232Z,21.52
2022-12-01T11:50:24.710Z,22.60
2022-12-01T11:52:51.856Z,22.35
2022-12-01T11:55:25.012Z,21.15
2022-12-01T11:57:54.993Z,20.80
2022-12-01T12:00:25.481Z,22.35
2022-12-01T12:03:17.079Z,23.30
2022-12-01T12:06:01.465Z,23.58
2022-12-01T12:08:59.852Z,23.63
2022-12-01T12:11:53.506Z,23.98
2022-12-01T12:15:08.377Z,24.27
2022-12-01T12:18:02.722Z,23.35
2022-12-01T12:20:56.939Z,24.33
2022-12-01T12:23:56.095Z,23.25
2022-12-01T12:26:27.386Z,22.45
2022-12-01T12:29:18.977Z,25.27
2022-12-01T12:32:04.159Z,28.63
2022-12-01T12:34:46.231Z,24.55
2022-12-01T12:37:35.392Z,25.67
2022-12-01T12:40:41.209Z,25.15
2022-12-01T12:43:22.519Z,26.75
2022-12-01T12:46:04.892Z,28.73
2022-12-01T12:49:18.649Z,25.58
2022-12-01T12:52:09.076Z,25.58
2022-12-01T12:54:46.412Z,24.83
2022-12-01T12:57:32.176Z,24.60
2022-12-01T13:00:14.174Z,23.25
2022-12-01T13:02:43.036Z,24.33
2022-12-01T13:05:18.712Z,25.23
2022-12-01T13:08:07.273Z,24.88
2022-12-01T13:10:40.738Z,24.55
2022-12-01T13:15:37.209Z,24.00
2022-12-01T13:18:17.069Z,20.50
2022-12-01T13:20:44.576Z,20.95
2022-12-01T13:23:16.895Z,18.92
2022-12-01T13:25:47.414Z,23.20
2022-12-01T13:28:49.473Z,19.80
2022-12-01T13:31:19.250Z,20.48
2022-12-01T13:34:15.941Z,18.80
2022-12-01T13:36:52.271Z,18.98
2022-12-01T13:39:36.486Z,19.45
2022-12-01T13:42:05.698Z,20.92
2022-12-01T13:44:46.114Z,20.35
2022-12-01T13:47:13.197Z,21.52
2022-12-01T13:49:49.404Z,20.23
2022-12-01T13:52:28.551Z,20.98
2022-12-01T13:55:07.802Z,20.08
2022-12-01T13:57:40.483Z,19.73
2022-12-01T14:00:24.015Z,20.33
2022-12-01T14:05:44.117Z,21.38
2022-12-01T14:08:31.312Z,20.88
2022-12-01T14:11:03.428Z,19.83
2022-12-01T14:13:32.844Z,20.85
2022-12-01T14:16:03.010Z,18.95
2022-12-01T14:18:42.031Z,17.02
2022-12-01T14:21:11.818Z,17.17
2022-12-01T14:24:01.158Z,17.95
2022-12-01T14:26:31.421Z,20.17
2022-12-01T14:29:01.577Z,19.25
2022-12-01T14:31:35.255Z,19.50
2022-12-01T14:34:18.872Z,20.15
2022-12-01T14:36:56.282Z,20.00
2022-12-01T14:39:36.358Z,19.02
2022-12-01T14:42:49.461Z,20.27
2022-12-01T14:45:23.108Z,19.58
2022-12-01T14:48:12.907Z,20.17
2022-12-01T14:50:49.463Z,20.20
2022-12-01T14:53:23.752Z,19.55
2022-12-01T14:56:10.276Z,20.10
2022-12-01T14:58:37.716Z,16.90
2022-12-01T15:01:07.213Z,15.77
2022-12-01T15:03:45.779Z,17.38
2022-12-01T15:06:19.280Z,16.27
2022-12-01T15:11:36.179Z,19.20
2022-12-01T15:14:03.419Z,19.10
2022-12-01T15:16:32.585Z,21.77
2022-12-01T15:19:00.868Z,23.00
2022-12-01T15:21:31.316Z,20.42
2022-12-01T15:24:04.917Z,18.58
2022-12-01T15:26:35.716Z,17.60
2022-12-01T15:29:19.619Z,19.73
2022-12-01T15:31:53.720Z,19.67
2022-12-01T15:34:45.116Z,18.38
2022-12-01T15:37:26.947Z,19.33
2022-12-01T15:40:59.857Z,20.63
2022-12-01T15:43:20.486Z,20.67
2022-12-01T15:45:54.464Z,20.92
2022-12-01T15:48:35.211Z,21.33
2022-12-01T15:51:05.882Z,20.95
2022-12-01T15:53:35.675Z,17.95
2022-12-01T15:56:09.646Z,16.85
2022-12-01T15:58:44.440Z,16.73
2022-12-01T16:01:21.499Z,18.35
2022-12-01T16:03:57.248Z,19.17
2022-12-01T16:06:30.864Z,19.33
2022-12-01T16:09:19.784Z,19.65
2022-12-01T16:12:11.838Z,20.83
2022-12-01T16:14:55.515Z,18.98
2022-12-01T16:20:19.516Z,20.52
2022-12-01T16:22:59.144Z,20.25
2022-12-01T16:25:40.620Z,21.40
2022-12-01T16:28:24.125Z,23.75
2022-12-01T16:30:53.568Z,22.75
2022-12-01T16:33:24.880Z,24.15
2022-12-01T16:35:53.236Z,23.60
2022-12-01T16:38:23.821Z,24.98
2022-12-01T16:40:55.411Z,23.25
2022-12-01T16:43:25.248Z,25.15
2022-12-01T16:46:03.489Z,23.23
2022-12-01T16:48:32.621Z,24.65
2022-12-01T16:51:06.559Z,25.88
2022-12-01T16:53:34.684Z,23.30
2022-12-01T16:56:03.819Z,25.42
2022-12-01T16:58:37.193Z,24.05
2022-12-01T17:01:07.281Z,24.52
2022-12-01T17:03:34.655Z,24.15
2022-12-01T17:06:03.313Z,24.17
2022-12-01T17:08:31.113Z,19.95
2022-12-01T17:10:59.376Z,20.50
2022-12-01T17:13:27.381Z,22.63
2022-12-01T17:15:55.674Z,20.25
2022-12-01T17:18:24.310Z,19.92
2022-12-01T17:21:05.828Z,20.77
2022-12-01T17:23:34.363Z,18.33
2022-12-01T17:26:01.806Z,20.95
2022-12-01T17:28:29.601Z,20.33
2022-12-01T17:31:00.916Z,20.05
2022-12-01T17:33:29.867Z,16.25
2022-12-01T17:36:00.910Z,14.25
2022-12-01T17:38:29.435Z,15.43
2022-12-01T17:41:02.127Z,16.70
2022-12-01T17:43:29.692Z,15.93
2022-12-01T17:45:57.620Z,17.13
2022-12-01T17:48:25.951Z,17.23
2022-12-01T17:50:53.249Z,17.25
2022-12-01T17:53:20.666Z,18.42
2022-12-01T17:55:48.175Z,19.23
2022-12-01T17:58:21.459Z,22.52
2022-12-01T18:00:55.448Z,24.08
2022-12-01T18:03:23.768Z,23.50
2022-12-01T18:05:59.213Z,23.48
2022-12-01T18:08:28.974Z,22.77
2022-12-01T18:10:56.856Z,20.15
2022-12-01T18:13:24.924Z,19.80
2022-12-01T18:15:52.703Z,19.63
2022-12-01T18:18:23.410Z,18.15
2022-12-01T18:20:52.129Z,16.48
2022-12-01T18:23:19.531Z,16.92
2022-12-01T18:25:49.013Z,16.25
2022-12-01T18:28:17.697Z,16.52
2022-12-01T18:30:51.935Z,16.08
2022-12-01T18:33:21.556Z,16.67
2022-12-01T18:35:51.056Z,15.15
2022-12-01T18:38:18.710Z,15.55
2022-12-01T18:40:48.182Z,15.70
2022-12-01T18:43:17.794Z,16.08
2022-12-01T18:45:46.090Z,15.65
2022-12-01T18:48:15.425Z,15.95
2022-12-01T18:50:43.220Z,15.32
2022-12-01T18:53:14.007Z,16.05
2022-12-01T18:55:41.415Z,16.10
2022-12-01T18:58:08.790Z,16.55
2022-12-01T19:00:36.096Z,15.52
2022-12-01T19:03:03.410Z,15.80
2022-12-01T19:05:33.642Z,16.38
2022-12-01T19:08:07.087Z,17.25
2022-12-01T19:13:01.761Z,17.10
2022-12-01T19:15:30.228Z,18.15
2022-12-01T19:17:57.805Z,18.70
2022-12-01T19:20:26.669Z,19.60
2022-12-01T19:22:55.134Z,19.95
2022-12-01T19:25:29.751Z,19.92
2022-12-01T19:27:58.816Z,19.77
2022-12-01T19:30:26.955Z,19.65
2022-12-01T19:32:56.208Z,19.08
2022-12-01T19:35:24.260Z,18.60
2022-12-01T19:37:53.314Z,18.33
2022-12-01T19:40:22.232Z,19.45
2022-12-01T19:42:49.790Z,19.35
2022-12-01T19:45:17.575Z,20.70
2022-12-01T19:47:49.194Z,20.60
2022-12-01T19:50:22.497Z,22.20
2022-12-01T19:52:59.078Z,21.83
2022-12-01T19:55:26.538Z,18.17
2022-12-01T19:57:54.413Z,17.65
2022-12-01T20:00:26.621Z,16.95
2022-12-01T20:02:53.724Z,18.75
2022-12-01T20:05:22.350Z,18.00
2022-12-01T20:07:51.419Z,17.02
2022-12-01T20:10:21.080Z,15.98
2022-12-01T20:12:55.097Z,15.10
2022-12-01T20:15:22.941Z,15.35
2022-12-01T20:17:50.977Z,16.80
2022-12-01T20:20:18.461Z,18.35
2022-12-01T20:22:49.243Z,19.50
2022-12-01T20:25:17.952Z,18.00
2022-12-01T20:27:46.309Z,16.55
2022-12-01T20:30:14.835Z,18.23
2022-12-01T20:32:43.876Z,19.00
2022-12-01T20:35:11.803Z,19.95
2022-12-01T20:37:39.341Z,18.20
2022-12-01T20:40:08.368Z,17.45
2022-12-01T20:42:37.597Z,17.90
2022-12-01T20:45:05.056Z,18.40
2022-12-01T20:47:37.650Z,17.92
2022-12-01T20:50:06.564Z,18.15
2022-12-01T20:52:34.287Z,17.90
2022-12-01T20:55:01.797Z,16.85
2022-12-01T20:57:29.491Z,18.08
2022-12-01T20:59:56.683Z,17.70
2022-12-01T21:02:23.739Z,19.15
2022-12-01T21:04:53.974Z,18.80
2022-12-01T21:07:26.111Z,19.13
2022-12-01T21:09:53.690Z,19.85
2022-12-01T21:12:39.413Z,17.95
2022-12-01T21:15:25.759Z,18.42
2022-12-01T21:18:05.049Z,17.90
2022-12-01T21:20:40.492Z,15.82
2022-12-01T21:23:13.104Z,16.10
2022-12-01T21:25:41.842Z,14.88
2022-12-01T21:28:25.043Z,17.98
2022-12-01T21:31:18.666Z,18.65
2022-12-01T21:33:46.864Z,24.80
2022-12-01T21:36:23.014Z,21.48
2022-12-01T21:38:56.094Z,19.92
2022-12-01T21:41:28.509Z,19.63
2022-12-01T21:44:16.867Z,19.88
2022-12-01T21:46:44.596Z,20.02
2022-12-01T21:49:25.627Z,19.88
2022-12-01T21:51:54.037Z,19.25
2022-12-01T21:54:23.235Z,16.48
2022-12-01T21:56:56.264Z,17.15
2022-12-01T21:59:30.003Z,17.00
2022-12-01T22:01:58.078Z,16.73
2022-12-01T22:04:30.546Z,16.10
2022-12-01T22:06:58.604Z,19.70
2022-12-01T22:09:34.466Z,20.20
2022-12-01T22:12:28.050Z,20.50
2022-12-01T22:15:01.305Z,19.23
2022-12-01T22:17:30.195Z,18.50
2022-12-01T22:20:21.556Z,18.48
2022-12-01T22:22:48.756Z,19.58
2022-12-01T22:25:25.746Z,21.80
2022-12-01T22:27:52.931Z,21.10
2022-12-01T22:30:24.185Z,22.30
2022-12-01T22:33:00.996Z,22.63
2022-12-01T22:35:42.492Z,19.80
2022-12-01T22:38:28.835Z,22.08
2022-12-01T22:41:03.756Z,22.85
2022-12-01T22:43:43.838Z,23.25
2022-12-01T22:46:21.792Z,29.92
2022-12-01T22:48:58.498Z,28.65
2022-12-01T22:51:26.968Z,23.60
2022-12-01T22:54:01.788Z,22.77
2022-12-01T22:56:47.389Z,22.10
2022-12-01T22:59:17.512Z,20.58
2022-12-01T23:01:53.444Z,20.38
2022-12-01T23:04:27.774Z,20.23
2022-12-01T23:07:07.413Z,19.90
2022-12-01T23:09:43.675Z,19.65
2022-12-01T23:12:28.716Z,20.13
2022-12-01T23:15:00.051Z,19.77
2022-12-01T23:17:33.062Z,20.42
2022-12-01T23:20:12.242Z,19.83
2022-12-01T23:22:39.711Z,19.42
2022-12-01T23:25:15.348Z,19.45
2022-12-01T23:27:44.470Z,18.85
2022-12-01T23:30:14.196Z,20.85
2022-12-01T23:32:42.124Z,19.92
2022-12-01T23:35:18.158Z,20.50
2022-12-01T23:37:48.180Z,20.15
2022-12-01T23:40:33.529Z,20.65
2022-12-01T23:43:25.531Z,18.95
2022-12-01T23:46:02.852Z,18.63
2022-12-01T23:48:39.681Z,19.08
2022-12-01T23:51:35.525Z,18.33
2022-12-01T23:54:13.768Z,19.25
2022-12-01T23:56:40.776Z,20.67
2022-12-01T23:59:14.023Z,21.52
